Time;durP1;ratioP1;P1;durP2;ratioP2;P2;SDS_P1;SDS_P2;PMS_P1;PMS_P2;Temp;Humidity;BMP_temperature;BMP_pressure;BME280_temperature;BME280_humidity;BME280_pressure;Samples;Min_cycle;Max_cycle;Signal;HPM_P1;HPM_P2
2022/07/12 00:01:46;;;;;;;5.05;3.42;;;;;;;13.99;100.00;102402.06;5025539;28;20042;-68
2022/07/12 00:04:12;;;;;;;3.58;3.13;;;;;;;13.90;100.00;102404.34;5024227;28;20057;-69
2022/07/12 00:06:37;;;;;;;3.70;3.13;;;;;;;13.73;100.00;102407.94;5024972;28;20041;-69
2022/07/12 00:09:04;;;;;;;2.72;1.70;;;;;;;13.50;100.00;102408.22;5025171;28;20018;-68
2022/07/12 00:11:29;;;;;;;1.50;1.40;;;;;;;13.57;100.00;102407.00;5025011;28;20037;-69
2022/07/12 00:13:55;;;;;;;2.00;1.90;;;;;;;13.71;99.78;102399.09;5025163;28;20049;-69
2022/07/12 00:16:21;;;;;;;2.60;2.40;;;;;;;13.66;100.00;102396.66;5023588;28;20029;-68
2022/07/12 00:18:47;;;;;;;2.90;2.70;;;;;;;13.51;100.00;102396.59;5026387;28;20105;-69
2022/07/12 00:21:12;;;;;;;2.35;1.50;;;;;;;13.54;100.00;102394.59;5025459;28;20067;-69
2022/07/12 00:23:38;;;;;;;1.67;1.58;;;;;;;13.43;100.00;102389.78;5025206;28;20044;-69
2022/07/12 00:26:04;;;;;;;1.45;1.35;;;;;;;13.44;100.00;102396.88;5025040;28;20038;-68
2022/07/12 00:28:33;;;;;;;1.80;1.70;;;;;;;13.45;100.00;102389.69;5024445;28;20038;-69
2022/07/12 00:30:59;;;;;;;1.88;1.77;;;;;;;13.39;100.00;102381.97;5023590;28;20427;-68
2022/07/12 00:33:25;;;;;;;3.17;2.13;;;;;;;13.37;100.00;102387.41;5024047;28;20052;-68
2022/07/12 00:35:50;;;;;;;2.47;2.28;;;;;;;13.39;100.00;102377.47;5024706;28;20050;-68
2022/07/12 00:38:18;;;;;;;2.63;1.92;;;;;;;13.42;100.00;102373.78;5023079;28;20046;-69
2022/07/12 00:40:44;;;;;;;2.05;1.85;;;;;;;13.43;100.00;102373.69;5024379;28;20053;-69
2022/07/12 00:43:09;;;;;;;2.58;2.30;;;;;;;13.44;100.00;102378.09;5023866;28;20034;-69
2022/07/12 00:45:35;;;;;;;3.28;2.97;;;;;;;13.38;100.00;102381.09;5023621;28;20037;-69
2022/07/12 00:48:01;;;;;;;2.97;2.67;;;;;;;13.20;100.00;102377.53;5025105;28;20785;-69
2022/07/12 00:50:26;;;;;;;2.88;2.38;;;;;;;13.19;100.00;102367.72;5023767;28;20096;-69
2022/07/12 00:52:54;;;;;;;2.88;2.53;;;;;;;13.20;100.00;102371.28;5003260;28;20046;-68
2022/07/12 00:55:21;;;;;;;3.05;2.72;;;;;;;13.16;100.00;102370.56;5019183;28;20517;-69
2022/07/12 00:57:50;;;;;;;5.57;3.83;;;;;;;13.10;100.00;102361.97;5010389;28;20326;-69
2022/07/12 01:00:22;;;;;;;2.60;2.40;;;;;;;12.96;100.00;102368.88;5004417;28;20034;-69
2022/07/12 01:02:48;;;;;;;;;;;;;;;12.94;100.00;102373.41;5005641;28;20042;-69
2022/07/12 01:05:13;;;;;;;1.52;1.42;;;;;;;12.95;99.64;102371.59;5004048;28;19918;-69
2022/07/12 01:07:40;;;;;;;2.28;1.90;;;;;;;12.82;100.00;102370.50;5004957;28;20043;-69
2022/07/12 01:10:07;;;;;;;4.40;2.05;;;;;;;12.75;100.00;102375.28;5004755;28;20046;-69
2022/07/12 01:12:33;;;;;;;1.70;1.60;;;;;;;12.80;100.00;102369.69;5005074;28;20030;-69
2022/07/12 01:15:00;;;;;;;1.83;1.73;;;;;;;12.83;100.00;102383.78;5005844;28;20117;-69
2022/07/12 01:17:27;;;;;;;3.75;2.33;;;;;;;12.91;100.00;102372.72;5005046;28;20054;-69
2022/07/12 01:19:57;;;;;;;2.05;1.95;;;;;;;12.93;100.00;102384.22;5005381;28;20082;-68
2022/07/12 01:22:30;;;;;;;2.00;1.88;;;;;;;12.78;100.00;102379.59;5005537;28;20093;-69
2022/07/12 01:24:55;;;;;;;1.40;1.30;;;;;;;12.74;100.00;102376.19;5004787;28;20041;-68
2022/07/12 01:27:21;;;;;;;1.40;1.25;;;;;;;12.59;100.00;102383.16;5003758;28;20030;-69
2022/07/12 01:29:46;;;;;;;1.35;1.30;;;;;;;12.58;100.00;102385.91;5004073;28;20034;-69
2022/07/12 01:32:24;;;;;;;0.82;0.82;;;;;;;12.67;100.00;102385.47;5004525;28;20053;-69
2022/07/12 01:34:55;;;;;;;1.23;1.20;;;;;;;12.77;100.00;102392.13;5002691;28;20054;-69
2022/07/12 01:37:25;;;;;;;4.30;1.60;;;;;;;12.81;100.00;102393.72;5002889;28;20115;-69
2022/07/12 01:39:53;;;;;;;9.05;2.55;;;;;;;12.74;100.00;102400.28;5003674;28;20134;-69
2022/07/12 01:42:20;;;;;;;6.30;2.00;;;;;;;12.65;100.00;102401.63;5004949;28;20062;-69
2022/07/12 01:44:46;;;;;;;7.20;2.30;;;;;;;12.68;100.00;102416.66;5004958;28;20038;-69
2022/07/12 01:47:12;;;;;;;3.03;2.22;;;;;;;12.69;100.00;102413.03;5003046;28;20061;-68
2022/07/12 01:49:37;;;;;;;3.70;2.50;;;;;;;12.69;100.00;102413.88;5005457;28;20041;-69
2022/07/12 01:52:04;;;;;;;3.65;3.28;;;;;;;12.81;100.00;102414.28;5018055;28;20052;-69
2022/07/12 01:54:29;;;;;;;4.18;3.70;;;;;;;12.81;100.00;102414.28;5022059;28;20053;-67
2022/07/12 01:56:55;;;;;;;6.25;3.85;;;;;;;12.86;100.00;102409.56;5022766;28;20045;-69
2022/07/12 01:59:21;;;;;;;4.30;3.83;;;;;;;12.80;100.00;102404.47;5023432;28;20038;-69
2022/07/12 02:01:48;;;;;;;48.38;5.93;;;;;;;12.55;100.00;102421.72;5023261;28;20038;-68
2022/07/12 02:04:19;;;;;;;16.30;4.35;;;;;;;12.43;100.00;102419.59;5022297;28;20050;-69
2022/07/12 02:06:45;;;;;;;42.75;5.53;;;;;;;12.22;100.00;102420.56;5023725;28;20462;-68
2022/07/12 02:09:12;;;;;;;33.13;6.05;;;;;;;12.35;100.00;102419.97;5025340;28;20049;-69
2022/07/12 02:11:37;;;;;;;26.80;5.97;;;;;;;12.43;100.00;102416.91;5022306;28;20040;-69
2022/07/12 02:14:03;;;;;;;17.50;6.05;;;;;;;12.47;100.00;102409.63;5024239;28;20046;-68
2022/07/12 02:16:28;;;;;;;14.70;5.57;;;;;;;12.56;100.00;102417.22;5007022;28;20037;-69
2022/07/12 02:18:54;;;;;;;39.92;7.75;;;;;;;12.53;100.00;102414.69;5025230;28;20046;-69
2022/07/12 02:21:19;;;;;;;63.67;8.02;;;;;;;12.54;100.00;102414.59;5028807;28;20037;-69
2022/07/12 02:23:44;;;;;;;36.35;6.88;;;;;;;12.50;100.00;102414.81;5026916;28;20056;-69
2022/07/12 02:26:10;;;;;;;52.42;7.15;;;;;;;12.52;100.00;102411.16;5028630;28;20066;-68
2022/07/12 02:28:35;;;;;;;19.67;6.10;;;;;;;12.39;100.00;102408.16;5027168;28;20045;-69
2022/07/12 02:31:01;;;;;;;15.00;5.53;;;;;;;12.39;100.00;102404.59;5027170;28;20026;-69
2022/07/12 02:33:27;;;;;;;7.95;5.28;;;;;;;12.45;100.00;102409.69;5028033;28;20038;-69
2022/07/12 02:35:52;;;;;;;12.73;5.93;;;;;;;12.43;100.00;102403.53;5027870;28;20042;-68
2022/07/12 02:38:20;;;;;;;12.40;6.07;;;;;;;12.42;100.00;102401.81;5027693;28;20048;-69
2022/07/12 02:40:54;;;;;;;8.07;5.75;;;;;;;12.40;100.00;102401.88;5026459;28;20038;-69
2022/07/12 02:43:21;;;;;;;9.25;6.10;;;;;;;12.44;100.00;102402.59;5026531;28;20201;-69
2022/07/12 02:45:47;;;;;;;7.90;5.00;;;;;;;12.45;100.00;102399.00;5027458;28;20045;-69
2022/07/12 02:48:13;;;;;;;5.93;4.57;;;;;;;12.49;100.00;102391.69;5027180;28;20042;-68
2022/07/12 02:50:39;;;;;;;5.93;4.45;;;;;;;12.47;100.00;102391.75;5027635;28;20025;-69
2022/07/12 02:53:05;;;;;;;5.93;5.25;;;;;;;12.45;100.00;102396.31;5028408;28;20041;-68
2022/07/12 02:55:31;;;;;;;5.15;4.45;;;;;;;12.39;100.00;102397.44;5027823;28;20042;-68
2022/07/12 02:57:56;;;;;;;5.40;4.80;;;;;;;12.14;100.00;102397.69;5027784;28;20045;-69
2022/07/12 03:00:22;;;;;;;6.93;4.82;;;;;;;12.06;100.00;102396.31;5027294;28;20057;-69
2022/07/12 03:02:47;;;;;;;5.22;4.13;;;;;;;12.01;100.00;102403.69;5024704;28;20089;-69
2022/07/12 03:05:13;;;;;;;4.55;4.15;;;;;;;11.99;100.00;102402.88;5027193;28;20028;-68
2022/07/12 03:07:38;;;;;;;5.03;4.40;;;;;;;11.95;100.00;102402.16;5027113;28;20108;-69
2022/07/12 03:10:04;;;;;;;4.85;4.28;;;;;;;11.97;100.00;102399.41;5027613;28;20030;-69
2022/07/12 03:12:30;;;;;;;13.75;5.35;;;;;;;11.95;100.00;102398.59;5026712;28;20033;-69
2022/07/12 03:14:55;;;;;;;7.03;5.60;;;;;;;11.91;100.00;102403.22;5028484;28;20041;-69
2022/07/12 03:17:21;;;;;;;7.47;5.53;;;;;;;12.00;100.00;102408.16;5027884;28;20049;-69
2022/07/12 03:19:46;;;;;;;8.63;5.25;;;;;;;11.92;100.00;102402.28;5028745;28;20049;-69
2022/07/12 03:22:12;;;;;;;7.30;5.05;;;;;;;11.83;100.00;102411.56;5027994;28;20049;-69
2022/07/12 03:24:37;;;;;;;10.35;4.97;;;;;;;11.74;100.00;102411.06;5028511;28;20056;-69
2022/07/12 03:27:03;;;;;;;7.30;4.55;;;;;;;11.85;100.00;102403.50;5028285;28;20034;-68
2022/07/12 03:29:28;;;;;;;7.68;4.03;;;;;;;12.00;100.00;102404.59;5028109;28;20053;-69
2022/07/12 03:31:54;;;;;;;23.10;5.00;;;;;;;12.01;100.00;102395.66;5027577;28;20045;-69
2022/07/12 03:34:19;;;;;;;13.63;3.50;;;;;;;12.00;100.00;102407.25;5026779;28;20029;-69
2022/07/12 03:36:45;;;;;;;8.88;4.35;;;;;;;11.88;100.00;102408.69;5027704;28;20026;-69
2022/07/12 03:39:11;;;;;;;6.00;4.18;;;;;;;11.90;100.00;102405.03;5028768;28;20036;-69
2022/07/12 03:41:36;;;;;;;9.07;4.20;;;;;;;11.98;100.00;102396.66;5026934;28;20026;-68
2022/07/12 03:44:02;;;;;;;5.13;3.33;;;;;;;12.06;100.00;102393.66;5026977;28;20038;-69
2022/07/12 03:46:27;;;;;;;4.07;3.25;;;;;;;12.08;100.00;102389.94;5027629;28;20022;-69
2022/07/12 03:48:53;;;;;;;3.67;3.33;;;;;;;12.07;100.00;102396.25;5027382;28;20034;-69
2022/07/12 03:51:18;;;;;;;3.92;3.63;;;;;;;12.07;100.00;102390.03;5019129;28;20043;-69
2022/07/12 03:53:44;;;;;;;3.63;3.33;;;;;;;12.19;100.00;102389.47;5009392;28;20060;-68
2022/07/12 03:57:13;;;;;;;3.35;3.05;;;;;;;12.25;100.00;102394.56;5027651;28;20325;-69
2022/07/12 03:58:55;;;;;;;3.53;3.22;;;;;;;12.37;100.00;102387.78;5026754;28;20077;-68
2022/07/12 04:01:20;;;;;;;3.70;3.40;;;;;;;12.41;100.00;102389.38;5026199;28;20253;-69
2022/07/12 04:03:46;;;;;;;7.00;3.80;;;;;;;12.38;100.00;102390.38;5024438;28;20029;-69
2022/07/12 04:06:11;;;;;;;11.32;4.50;;;;;;;12.51;100.00;102387.16;5026240;28;20025;-69
2022/07/12 04:08:37;;;;;;;22.83;4.25;;;;;;;12.52;100.00;102387.06;5026594;28;20042;-69
2022/07/12 04:11:02;;;;;;;28.00;5.60;;;;;;;12.47;100.00;102382.88;5027145;28;20060;-69
2022/07/12 04:13:28;;;;;;;5.10;4.18;;;;;;;12.58;100.00;102376.06;5026490;28;20045;-69
2022/07/12 04:15:56;;;;;;;4.07;3.65;;;;;;;12.79;100.00;102374.16;5027502;28;20049;-69
2022/07/12 04:18:21;;;;;;;7.20;3.70;;;;;;;12.81;100.00;102374.97;5029395;28;20659;-69
2022/07/12 04:20:47;;;;;;;3.53;3.22;;;;;;;12.76;100.00;102381.50;5028139;28;20026;-69
2022/07/12 04:23:12;;;;;;;5.13;3.25;;;;;;;12.83;100.00;102369.53;5027895;28;20060;-69
2022/07/12 04:25:37;;;;;;;5.22;4.45;;;;;;;12.74;100.00;102368.16;5027579;28;20032;-69
2022/07/12 04:28:03;;;;;;;4.90;4.40;;;;;;;12.62;100.00;102361.59;5026691;28;20821;-69
2022/07/12 04:30:29;;;;;;;4.78;4.30;;;;;;;12.71;100.00;102362.97;5009901;28;20026;-69
2022/07/12 04:32:54;;;;;;;5.05;4.55;;;;;;;12.81;100.00;102368.75;5026402;28;20038;-69
2022/07/12 04:35:20;;;;;;;4.68;4.25;;;;;;;12.92;100.00;102371.78;5026106;28;20037;-69
2022/07/12 04:37:48;;;;;;;6.50;4.80;;;;;;;12.95;100.00;102379.63;5027110;28;20103;-69
2022/07/12 04:40:13;;;;;;;5.32;4.38;;;;;;;12.96;100.00;102381.41;5005917;28;20049;-68
2022/07/12 04:42:39;;;;;;;8.07;4.97;;;;;;;13.12;100.00;102393.09;5001296;28;20046;-68
2022/07/12 04:45:05;;;;;;;5.57;4.97;;;;;;;13.18;100.00;102391.91;5001533;28;20054;-68
2022/07/12 04:47:30;;;;;;;6.10;4.88;;;;;;;13.23;100.00;102397.09;5000163;28;20053;-68
2022/07/12 04:49:55;;;;;;;5.07;4.53;;;;;;;13.44;100.00;102393.31;5001732;28;20065;-68
2022/07/12 04:52:21;;;;;;;6.22;4.80;;;;;;;13.42;100.00;102403.25;4986232;28;20050;-69
2022/07/12 04:54:47;;;;;;;5.22;4.72;;;;;;;13.57;100.00;102398.94;5016318;28;20050;-69
2022/07/12 04:57:12;;;;;;;6.30;4.63;;;;;;;13.77;100.00;102405.97;5024370;28;20129;-69
2022/07/12 04:59:38;;;;;;;6.07;4.82;;;;;;;14.20;100.00;102396.50;5025609;28;20034;-69
2022/07/12 05:02:06;;;;;;;5.45;4.95;;;;;;;15.45;97.61;102399.34;5023504;28;20089;-69
2022/07/12 05:04:33;;;;;;;7.22;6.53;;;;;;;16.91;92.40;102397.47;5026141;28;20042;-69
2022/07/12 05:06:59;;;;;;;6.97;6.28;;;;;;;16.89;91.67;102390.47;5024186;28;20037;-70
2022/07/12 05:09:24;;;;;;;7.53;6.13;;;;;;;17.55;89.06;102403.13;5026036;28;20041;-69
2022/07/12 05:11:50;;;;;;;8.10;6.45;;;;;;;17.94;86.62;102398.69;5026677;28;20030;-70
2022/07/12 05:14:15;;;;;;;11.82;6.38;;;;;;;18.89;82.30;102395.47;5026485;28;20046;-69
2022/07/12 05:16:41;;;;;;;8.38;5.88;;;;;;;18.52;83.34;102399.94;5026643;28;20041;-70
2022/07/12 05:19:07;;;;;;;8.30;5.90;;;;;;;17.78;87.95;102407.84;5025613;28;20072;-70
2022/07/12 05:21:34;;;;;;;5.93;5.30;;;;;;;17.84;87.35;102414.66;5025609;28;20333;-70
2022/07/12 05:24:00;;;;;;;5.18;4.68;;;;;;;18.19;87.10;102414.03;5026135;28;20038;-70
2022/07/12 05:26:25;;;;;;;9.93;5.15;;;;;;;18.85;85.39;102399.38;5025617;28;20041;-69
2022/07/12 05:28:51;;;;;;;4.68;4.28;;;;;;;19.15;82.89;102404.34;5024646;28;20052;-69
2022/07/12 05:31:16;;;;;;;4.97;4.57;;;;;;;19.57;81.56;102405.63;5006780;28;20042;-70
2022/07/12 05:33:42;;;;;;;5.88;5.28;;;;;;;19.65;80.33;102411.34;5024900;28;20022;-69
2022/07/12 05:36:07;;;;;;;6.13;5.50;;;;;;;19.63;80.93;102421.47;5024402;28;20052;-70
2022/07/12 05:38:33;;;;;;;5.60;5.10;;;;;;;20.10;80.43;102427.72;5024149;28;20050;-70
2022/07/12 05:40:58;;;;;;;5.53;5.03;;;;;;;20.74;78.38;102431.75;5025367;28;20037;-68
2022/07/12 05:43:24;;;;;;;6.93;5.57;;;;;;;20.79;78.51;102441.22;5023128;28;20077;-70
2022/07/12 05:45:49;;;;;;;6.15;5.55;;;;;;;21.88;72.54;102445.72;5024585;28;20037;-68
2022/07/12 05:48:15;;;;;;;5.72;5.22;;;;;;;21.72;73.65;102444.31;5024521;28;20038;-69
2022/07/12 05:50:40;;;;;;;6.65;6.05;;;;;;;21.76;74.93;102441.34;5021715;28;20034;-70
2022/07/12 05:53:21;;;;;;;7.90;7.15;;;;;;;22.33;71.75;102440.88;5003145;28;20049;-69
2022/07/12 05:55:47;;;;;;;7.80;7.00;;;;;;;21.97;73.32;102439.50;5022973;28;20042;-70
2022/07/12 05:58:13;;;;;;;6.78;6.18;;;;;;;22.09;73.07;102449.31;5023060;28;20065;-69
2022/07/12 06:00:38;;;;;;;9.55;7.25;;;;;;;21.89;74.32;102445.59;5024052;28;20046;-68
2022/07/12 06:03:04;;;;;;;7.93;7.10;;;;;;;21.98;74.84;102444.78;5023629;28;20049;-69
2022/07/12 06:05:29;;;;;;;8.48;7.63;;;;;;;21.01;78.15;102440.31;5023654;28;20030;-69
2022/07/12 06:07:55;;;;;;;7.90;7.13;;;;;;;20.99;79.01;102445.03;5024730;28;20033;-69
2022/07/12 06:10:20;;;;;;;8.55;7.35;;;;;;;21.40;78.37;102444.34;5024171;28;20034;-69
2022/07/12 06:12:46;;;;;;;8.07;6.60;;;;;;;21.55;77.33;102452.19;5024378;28;20032;-69
2022/07/12 06:15:11;;;;;;;12.82;8.40;;;;;;;22.16;75.46;102446.94;5024856;28;20048;-69
2022/07/12 06:17:37;;;;;;;8.13;7.32;;;;;;;22.92;72.55;102451.03;5024406;28;20042;-69
2022/07/12 06:20:03;;;;;;;7.35;6.65;;;;;;;23.23;72.28;102448.25;5024917;28;20050;-69
2022/07/12 06:22:28;;;;;;;7.93;7.13;;;;;;;23.56;70.73;102449.72;5023840;28;20042;-69
2022/07/12 06:24:54;;;;;;;7.53;6.72;;;;;;;24.24;68.60;102441.50;5023994;28;20065;-69
2022/07/12 06:27:19;;;;;;;7.75;7.00;;;;;;;23.76;68.90;102435.13;5022419;28;20038;-68
2022/07/12 06:29:47;;;;;;;7.13;6.47;;;;;;;23.32;70.80;102439.25;5024524;28;20045;-67
2022/07/12 06:32:16;;;;;;;7.05;6.45;;;;;;;24.14;67.85;102437.94;5025904;28;20073;-69
2022/07/12 06:34:42;;;;;;;8.65;7.32;;;;;;;24.43;69.25;102443.34;5027153;28;20038;-68
2022/07/12 06:37:08;;;;;;;8.98;6.78;;;;;;;23.31;72.66;102453.00;5026846;28;20115;-69
2022/07/12 06:39:35;;;;;;;8.30;7.18;;;;;;;22.62;74.46;102443.75;5026712;28;20056;-69
2022/07/12 06:42:03;;;;;;;8.00;7.22;;;;;;;22.35;76.96;102462.50;5027069;28;20084;-69
2022/07/12 06:44:30;;;;;;;7.85;7.15;;;;;;;23.13;74.31;102458.25;5026356;28;20042;-69
2022/07/12 06:46:56;;;;;;;7.55;6.80;;;;;;;23.41;72.82;102445.72;5026663;28;20034;-69
2022/07/12 06:49:22;;;;;;;8.00;7.28;;;;;;;23.95;72.71;102442.44;5026080;28;20034;-69
2022/07/12 06:51:47;;;;;;;8.15;6.88;;;;;;;24.12;71.89;102438.09;5025240;28;20050;-68
2022/07/12 06:54:13;;;;;;;8.98;8.07;;;;;;;23.33;72.33;102440.09;5023956;28;20052;-69
2022/07/12 06:56:38;;;;;;;9.35;7.60;;;;;;;23.23;73.17;102438.22;5022275;28;20027;-69
2022/07/12 06:59:04;;;;;;;8.55;7.75;;;;;;;22.95;75.54;102441.75;5007473;28;20034;-69
2022/07/12 07:01:29;;;;;;;8.13;7.32;;;;;;;24.03;72.19;102442.53;5007837;28;20027;-69
2022/07/12 07:03:54;;;;;;;10.32;6.65;;;;;;;24.08;72.34;102435.78;5008066;28;20038;-68
2022/07/12 07:06:20;;;;;;;7.53;6.78;;;;;;;25.08;69.98;102425.09;4992632;28;20057;-68
2022/07/12 07:08:45;;;;;;;9.77;6.40;;;;;;;24.91;67.50;102434.09;5011630;28;20061;-69
2022/07/12 07:11:11;;;;;;;8.00;7.15;;;;;;;25.01;67.49;102435.75;5011413;28;20054;-69
2022/07/12 07:13:37;;;;;;;11.00;5.88;;;;;;;25.14;69.39;102431.81;5010588;28;20042;-68
2022/07/12 07:16:02;;;;;;;11.13;6.53;;;;;;;24.76;69.12;102442.78;5010636;28;20026;-69
2022/07/12 07:18:28;;;;;;;15.65;6.00;;;;;;;24.72;70.26;102449.53;5012134;28;20038;-69
2022/07/12 07:20:53;;;;;;;8.73;5.07;;;;;;;25.28;68.33;102436.75;5012087;28;20042;-69
2022/07/12 07:23:19;;;;;;;5.75;5.22;;;;;;;25.78;65.18;102438.94;5011140;28;20045;-69
2022/07/12 07:25:47;;;;;;;5.05;4.65;;;;;;;25.05;66.65;102433.53;5010949;28;20069;-69
2022/07/12 07:28:13;;;;;;;5.28;4.78;;;;;;;25.44;67.77;102436.03;5009152;28;20177;-69
2022/07/12 07:30:54;;;;;;;4.93;4.43;;;;;;;26.04;64.71;102436.25;5010685;28;20023;-69
2022/07/12 07:33:24;;;;;;;5.00;4.27;;;;;;;25.72;66.37;102445.88;5010001;28;20038;-69
2022/07/12 07:35:50;;;;;;;5.22;4.57;;;;;;;25.82;63.17;102446.69;5009298;28;20069;-69
2022/07/12 07:38:17;;;;;;;5.03;3.97;;;;;;;25.67;64.41;102450.94;5010985;28;20053;-69
2022/07/12 07:40:43;;;;;;;5.60;4.70;;;;;;;26.24;61.60;102442.34;5010568;28;20026;-68
2022/07/12 07:43:09;;;;;;;5.20;4.70;;;;;;;26.92;61.02;102445.13;5011288;28;20026;-71
2022/07/12 07:45:36;;;;;;;3.78;3.47;;;;;;;27.39;60.66;102444.59;5012494;28;20341;-69
2022/07/12 07:48:01;;;;;;;6.53;4.40;;;;;;;27.97;58.16;102438.16;5012007;28;20129;-69
2022/07/12 07:50:27;;;;;;;4.22;3.80;;;;;;;28.29;56.73;102434.47;5011605;28;20050;-70
2022/07/12 07:52:53;;;;;;;8.50;5.28;;;;;;;27.71;59.97;102434.72;5031081;28;20037;-69
2022/07/12 07:55:18;;;;;;;7.38;5.43;;;;;;;27.81;57.49;102435.41;5030059;28;20250;-69
2022/07/12 07:57:45;;;;;;;6.07;5.20;;;;;;;28.12;54.27;102436.41;5028004;28;20056;-69
2022/07/12 08:00:12;;;;;;;11.15;5.53;;;;;;;27.50;58.96;102432.44;5026555;28;20097;-69
2022/07/12 08:02:37;;;;;;;6.70;5.20;;;;;;;27.29;57.71;102439.28;5026502;28;20030;-69
2022/07/12 08:05:03;;;;;;;7.47;5.53;;;;;;;26.89;59.84;102431.78;5027014;28;20021;-70
2022/07/12 08:07:28;;;;;;;4.80;4.30;;;;;;;27.39;59.82;102438.25;5028116;28;20125;-69
2022/07/12 08:09:54;;;;;;;5.75;4.60;;;;;;;27.42;58.50;102441.53;5026445;28;20046;-69
2022/07/12 08:12:19;;;;;;;5.85;4.85;;;;;;;27.05;58.55;102439.19;5029128;28;20029;-69
2022/07/12 08:14:45;;;;;;;7.13;5.22;;;;;;;26.14;60.27;102442.47;5029154;28;20311;-69
2022/07/12 08:17:10;;;;;;;5.30;4.80;;;;;;;26.98;56.37;102432.66;5029994;28;20026;-68
2022/07/12 08:19:36;;;;;;;5.95;5.22;;;;;;;27.85;56.19;102428.53;5028936;28;20038;-69
2022/07/12 08:22:01;;;;;;;7.13;4.03;;;;;;;28.30;55.28;102425.22;5026258;28;20042;-67
2022/07/12 08:24:27;;;;;;;4.80;3.70;;;;;;;28.03;52.64;102421.00;5015483;28;20042;-66
2022/07/12 08:26:52;;;;;;;19.95;4.68;;;;;;;28.08;56.58;102420.47;5013999;28;20497;-68
2022/07/12 08:29:18;;;;;;;8.00;4.60;;;;;;;27.46;56.81;102422.84;5017233;28;20324;-68
2022/07/12 08:31:46;;;;;;;8.98;4.78;;;;;;;27.29;58.38;102431.06;5024073;28;20042;-69
2022/07/12 08:34:12;;;;;;;5.72;4.40;;;;;;;27.10;58.35;102431.34;5018505;28;20070;-68
2022/07/12 08:36:41;;;;;;;6.15;4.38;;;;;;;27.06;57.18;102430.81;5018847;28;20046;-67
2022/07/12 08:39:06;;;;;;;6.32;4.97;;;;;;;27.07;57.48;102427.06;5021412;28;20101;-68
2022/07/12 08:41:32;;;;;;;5.28;4.28;;;;;;;27.84;57.53;102433.19;5024462;28;20052;-69
2022/07/12 08:43:57;;;;;;;9.38;4.40;;;;;;;27.30;57.44;102434.66;5023182;28;20049;-68
2022/07/12 08:46:22;;;;;;;6.57;4.55;;;;;;;27.84;55.69;102435.06;5022591;28;20034;-69
2022/07/12 08:48:48;;;;;;;6.63;4.35;;;;;;;27.57;55.44;102430.75;5022769;28;20042;-68
2022/07/12 08:51:19;;;;;;;7.72;5.30;;;;;;;27.35;58.37;102438.59;5015208;28;20072;-68
2022/07/12 08:53:46;;;;;;;5.90;4.90;;;;;;;27.63;57.25;102441.03;5006346;28;20487;-69
2022/07/12 08:56:50;;;;;;;7.80;5.05;;;;;;;27.34;59.09;102433.28;5021276;28;20041;-68
2022/07/12 08:59:18;;;;;;;6.85;4.35;;;;;;;27.96;58.64;102441.03;4945553;29;20115;-68
2022/07/12 09:01:49;;;;;;;5.80;4.25;;;;;;;27.34;57.17;102439.63;4961789;28;20450;-67
2022/07/12 09:04:19;;;;;;;;;;;;;;;26.57;57.19;102447.03;4962382;29;20051;-68
2022/07/12 09:06:45;;;;;;;5.22;4.03;;;;;;;26.79;59.11;102442.00;4961318;28;19918;-69
2022/07/12 09:09:11;;;;;;;3.80;3.17;;;;;;;26.05;55.97;102448.88;4945879;29;20099;-69
2022/07/12 09:11:38;;;;;;;6.47;3.55;;;;;;;27.34;57.73;102447.84;4962279;29;20031;-68
2022/07/12 09:14:05;;;;;;;3.40;3.03;;;;;;;26.81;52.09;102445.44;4962320;29;20614;-68
2022/07/12 09:16:30;;;;;;;14.25;6.28;;;;;;;27.10;55.92;102447.78;4962905;29;20561;-69
2022/07/12 09:19:19;;;;;;;6.97;2.65;;;;;;;27.10;51.99;102448.63;4964008;29;20031;-69
2022/07/12 09:21:54;;;;;;;11.50;3.97;;;;;;;27.35;50.87;102445.97;4964451;29;20086;-69
2022/07/12 09:24:23;;;;;;;1.95;1.83;;;;;;;27.36;52.65;102447.66;4948271;29;20043;-69
2022/07/12 09:27:03;;;;;;;4.72;2.65;;;;;;;27.00;55.87;102442.41;4964831;29;20043;-69
2022/07/12 09:29:28;;;;;;;6.90;4.15;;;;;;;25.79;54.10;102448.84;4980320;28;20073;-69
2022/07/12 09:37:26;;;;;;;3.72;2.90;;;;;;;26.18;53.52;102443.00;5023639;28;20068;-68
2022/07/12 09:39:53;;;;;;;2.70;2.08;;;;;;;26.44;57.26;102434.81;5020606;28;20046;-68
2022/07/12 09:42:19;;;;;;;5.03;2.92;;;;;;;26.64;54.74;102432.69;5022587;28;20030;-68
2022/07/12 09:44:45;;;;;;;5.25;4.07;;;;;;;25.90;55.53;102434.94;5021716;28;20056;-68
2022/07/12 09:47:13;;;;;;;4.45;3.00;;;;;;;26.85;56.79;102422.16;5021762;28;20287;-69
2022/07/12 09:49:39;;;;;;;3.40;2.63;;;;;;;27.24;54.95;102418.88;5022447;28;20053;-68
2022/07/12 09:52:06;;;;;;;3.70;2.00;;;;;;;27.40;55.50;102426.28;5023142;28;20045;-68
2022/07/12 09:54:37;;;;;;;3.58;1.70;;;;;;;27.21;54.51;102419.22;5020455;28;20065;-69
2022/07/12 09:57:03;;;;;;;2.90;2.00;;;;;;;26.91;53.12;102429.75;5016331;28;20577;-69
2022/07/12 09:59:29;;;;;;;4.38;2.05;;;;;;;26.75;53.26;102424.19;5017440;28;20118;-69
2022/07/12 10:01:59;;;;;;;4.05;2.65;;;;;;;27.38;55.92;102425.59;5016946;28;20065;-69
2022/07/12 10:04:30;;;;;;;8.27;3.78;;;;;;;27.55;55.02;102430.91;5016761;28;20087;-69
2022/07/12 10:06:56;;;;;;;3.25;2.80;;;;;;;27.57;51.63;102422.53;5016481;28;20049;-68
2022/07/12 10:09:23;;;;;;;3.92;2.30;;;;;;;27.74;56.02;102415.19;5017538;28;20639;-69
2022/07/12 10:11:49;;;;;;;5.68;2.50;;;;;;;27.29;59.60;102411.88;5018017;28;20025;-69
2022/07/12 10:14:15;;;;;;;5.38;4.28;;;;;;;27.17;54.45;102410.50;5018723;28;20033;-69
2022/07/12 10:16:45;;;;;;;5.18;3.17;;;;;;;27.05;56.76;102418.13;5019474;28;20045;-69
2022/07/12 10:19:27;;;;;;;6.00;3.78;;;;;;;27.32;57.04;102413.44;5019695;28;20045;-67
2022/07/12 10:21:58;;;;;;;2.70;2.50;;;;;;;27.43;57.39;102418.56;5017277;28;20073;-69
2022/07/12 10:24:32;;;;;;;4.22;2.38;;;;;;;27.60;55.00;102412.06;5021361;28;20048;-69
2022/07/12 10:26:58;;;;;;;5.32;3.30;;;;;;;26.70;55.21;102411.00;5021137;28;20033;-69
2022/07/12 10:29:25;;;;;;;4.90;2.55;;;;;;;27.57;54.96;102415.16;5020234;28;20049;-69
2022/07/12 10:31:51;;;;;;;5.22;2.53;;;;;;;27.62;55.17;102411.91;5018309;28;20114;-69
2022/07/12 10:34:27;;;;;;;3.67;2.22;;;;;;;26.78;54.80;102407.44;5018926;28;20053;-69
2022/07/12 10:36:55;;;;;;;4.25;1.80;;;;;;;28.08;55.46;102401.28;5018165;28;20041;-69
2022/07/12 10:39:25;;;;;;;2.55;2.35;;;;;;;27.48;54.89;102407.13;5020478;28;20056;-69
2022/07/12 10:42:06;;;;;;;2.75;2.40;;;;;;;27.22;52.88;102399.03;5024441;28;20026;-69
2022/07/12 10:44:37;;;;;;;2.55;2.25;;;;;;;26.36;54.95;102411.00;5023278;28;20073;-68
2022/07/12 10:47:04;;;;;;;2.92;1.80;;;;;;;27.69;57.57;102401.97;5024652;28;20053;-69
2022/07/12 10:49:31;;;;;;;2.15;1.20;;;;;;;27.34;51.66;102403.16;5024620;28;20057;-69
2022/07/12 10:52:11;;;;;;;3.40;2.28;;;;;;;27.91;54.71;102402.31;5013460;28;20046;-68
2022/07/12 10:54:38;;;;;;;3.25;1.60;;;;;;;27.05;53.13;102409.06;5014526;28;20124;-67
2022/07/12 10:57:03;;;;;;;3.53;1.98;;;;;;;27.46;53.14;102396.31;5026210;28;20026;-69
2022/07/12 10:59:30;;;;;;;2.03;1.30;;;;;;;26.94;51.15;102391.06;5024553;28;20048;-69
2022/07/12 11:01:56;;;;;;;1.10;0.93;;;;;;;27.65;53.41;102399.72;5023971;28;20037;-69
2022/07/12 11:04:22;;;;;;;3.70;1.20;;;;;;;28.71;51.16;102385.81;5024584;28;20116;-68
2022/07/12 11:06:49;;;;;;;3.42;1.20;;;;;;;28.93;50.29;102390.50;5024095;28;20030;-69
2022/07/12 11:09:17;;;;;;;4.07;1.35;;;;;;;29.04;46.55;102386.53;5024000;28;20470;-69
2022/07/12 11:11:45;;;;;;;2.78;1.40;;;;;;;28.63;47.10;102393.06;5024482;28;20038;-69
2022/07/12 11:14:19;;;;;;;3.58;1.33;;;;;;;29.30;54.26;102389.75;5017819;28;20042;-68
2022/07/12 11:16:47;;;;;;;3.60;1.20;;;;;;;27.93;47.82;102390.16;5002563;28;20045;-68
2022/07/12 11:19:13;;;;;;;1.55;1.33;;;;;;;28.47;46.37;102389.53;5004459;28;20073;-68
2022/07/12 11:21:38;;;;;;;1.40;1.17;;;;;;;28.08;47.18;102390.31;5002772;28;20683;-68
2022/07/12 11:24:19;;;;;;;1.20;1.10;;;;;;;28.23;49.22;102390.44;5004876;28;20053;-68
2022/07/12 11:26:45;;;;;;;2.97;1.20;;;;;;;28.66;49.05;102386.34;5004559;28;20049;-68